sensor_id;sensor_type;location;lat;lon;timestamp;temperature;humidity
3921;DHT22;1975;49.356;6.816;2023-05-10T00:00:55;15.80;99.90
3921;DHT22;1975;49.356;6.816;2023-05-10T00:03:20;15.80;99.90
3921;DHT22;1975;49.356;6.816;2023-05-10T00:05:46;15.80;99.90
3921;DHT22;1975;49.356;6.816;2023-05-10T00:08:11;15.80;99.90
3921;DHT22;1975;49.356;6.816;2023-05-10T00:10:37;15.80;99.90
3921;DHT22;1975;49.356;6.816;2023-05-10T00:13:02;15.80;99.90
3921;DHT22;1975;49.356;6.816;2023-05-10T00:15:28;15.80;99.90
3921;DHT22;1975;49.356;6.816;2023-05-10T00:17:56;15.80;99.90
3921;DHT22;1975;49.356;6.816;2023-05-10T00:20:21;15.80;99.90
3921;DHT22;1975;49.356;6.816;2023-05-10T00:22:47;15.80;99.90
3921;DHT22;1975;49.356;6.816;2023-05-10T00:25:12;15.80;99.90
3921;DHT22;1975;49.356;6.816;2023-05-10T00:27:37;15.80;99.90
3921;DHT22;1975;49.356;6.816;2023-05-10T00:30:03;15.80;99.90
3921;DHT22;1975;49.356;6.816;2023-05-10T00:32:29;15.80;99.90
3921;DHT22;1975;49.356;6.816;2023-05-10T00:34:54;15.80;99.90
3921;DHT22;1975;49.356;6.816;2023-05-10T00:37:20;15.80;99.90
3921;DHT22;1975;49.356;6.816;2023-05-10T00:39:45;15.70;99.90
3921;DHT22;1975;49.356;6.816;2023-05-10T00:42:10;15.80;99.90
3921;DHT22;1975;49.356;6.816;2023-05-10T00:44:36;15.70;99.90
3921;DHT22;1975;49.356;6.816;2023-05-10T00:47:02;15.70;99.90
3921;DHT22;1975;49.356;6.816;2023-05-10T00:49:28;15.70;99.90
3921;DHT22;1975;49.356;6.816;2023-05-10T00:51:53;15.70;99.90
3921;DHT22;1975;49.356;6.816;2023-05-10T00:54:19;15.70;99.90
3921;DHT22;1975;49.356;6.816;2023-05-10T00:56:44;15.70;99.90
3921;DHT22;1975;49.356;6.816;2023-05-10T00:59:17;15.70;99.90
3921;DHT22;1975;49.356;6.816;2023-05-10T01:01:45;15.70;99.90
3921;DHT22;1975;49.356;6.816;2023-05-10T01:04:11;15.70;99.90
3921;DHT22;1975;49.356;6.816;2023-05-10T01:06:38;15.70;99.90
3921;DHT22;1975;49.356;6.816;2023-05-10T01:09:04;15.70;99.90
3921;DHT22;1975;49.356;6.816;2023-05-10T01:11:29;15.70;99.90
3921;DHT22;1975;49.356;6.816;2023-05-10T01:13:55;15.70;99.90
3921;DHT22;1975;49.356;6.816;2023-05-10T01:16:22;15.70;99.90
3921;DHT22;1975;49.356;6.816;2023-05-10T01:18:47;15.70;99.90
3921;DHT22;1975;49.356;6.816;2023-05-10T01:26:33;15.60;99.90
3921;DHT22;1975;49.356;6.816;2023-05-10T01:29:25;15.60;99.90
3921;DHT22;1975;49.356;6.816;2023-05-10T01:34:25;15.60;99.90
3921;DHT22;1975;49.356;6.816;2023-05-10T01:36:54;15.60;99.90
3921;DHT22;1975;49.356;6.816;2023-05-10T01:39:34;15.60;99.90
3921;DHT22;1975;49.356;6.816;2023-05-10T01:42:08;15.60;99.90
3921;DHT22;1975;49.356;6.816;2023-05-10T01:47:25;15.60;99.90
3921;DHT22;1975;49.356;6.816;2023-05-10T01:49:53;15.60;99.90
3921;DHT22;1975;49.356;6.816;2023-05-10T01:52:20;15.60;99.90
3921;DHT22;1975;49.356;6.816;2023-05-10T01:54:55;15.60;99.90
3921;DHT22;1975;49.356;6.816;2023-05-10T01:57:21;15.60;99.90
3921;DHT22;1975;49.356;6.816;2023-05-10T01:59:47;15.60;99.90
3921;DHT22;1975;49.356;6.816;2023-05-10T02:02:14;15.50;99.90
3921;DHT22;1975;49.356;6.816;2023-05-10T02:04:41;15.50;99.90
3921;DHT22;1975;49.356;6.816;2023-05-10T02:07:07;15.50;99.90
3921;DHT22;1975;49.356;6.816;2023-05-10T02:09:33;15.50;99.90
3921;DHT22;1975;49.356;6.816;2023-05-10T02:12:00;15.50;99.90
3921;DHT22;1975;49.356;6.816;2023-05-10T02:14:28;15.50;99.90
3921;DHT22;1975;49.356;6.816;2023-05-10T02:16:54;15.50;99.90
3921;DHT22;1975;49.356;6.816;2023-05-10T02:19:20;15.50;99.90
3921;DHT22;1975;49.356;6.816;2023-05-10T02:21:48;15.50;99.90
3921;DHT22;1975;49.356;6.816;2023-05-10T02:24:14;15.50;99.90
3921;DHT22;1975;49.356;6.816;2023-05-10T02:26:40;15.50;99.90
3921;DHT22;1975;49.356;6.816;2023-05-10T02:29:07;15.50;99.90
3921;DHT22;1975;49.356;6.816;2023-05-10T02:31:33;15.50;99.90
3921;DHT22;1975;49.356;6.816;2023-05-10T02:34:00;15.50;99.90
3921;DHT22;1975;49.356;6.816;2023-05-10T02:36:26;15.50;99.90
3921;DHT22;1975;49.356;6.816;2023-05-10T02:38:52;15.50;99.90
3921;DHT22;1975;49.356;6.816;2023-05-10T02:41:18;15.40;99.90
3921;DHT22;1975;49.356;6.816;2023-05-10T02:43:44;15.40;99.90
3921;DHT22;1975;49.356;6.816;2023-05-10T02:46:11;15.40;99.90
3921;DHT22;1975;49.356;6.816;2023-05-10T02:48:36;15.40;99.90
3921;DHT22;1975;49.356;6.816;2023-05-10T02:51:04;15.40;99.90
3921;DHT22;1975;49.356;6.816;2023-05-10T02:53:31;15.40;99.90
3921;DHT22;1975;49.356;6.816;2023-05-10T02:55:57;15.40;99.90
3921;DHT22;1975;49.356;6.816;2023-05-10T02:58:24;15.40;99.90
3921;DHT22;1975;49.356;6.816;2023-05-10T03:00:49;15.40;99.90
3921;DHT22;1975;49.356;6.816;2023-05-10T03:03:15;15.40;99.90
3921;DHT22;1975;49.356;6.816;2023-05-10T03:05:40;15.40;99.90
3921;DHT22;1975;49.356;6.816;2023-05-10T03:08:05;15.40;99.90
3921;DHT22;1975;49.356;6.816;2023-05-10T03:10:31;15.40;99.90
3921;DHT22;1975;49.356;6.816;2023-05-10T03:13:20;15.40;99.90
3921;DHT22;1975;49.356;6.816;2023-05-10T03:18:34;15.40;99.90
3921;DHT22;1975;49.356;6.816;2023-05-10T03:21:02;15.40;99.90
3921;DHT22;1975;49.356;6.816;2023-05-10T03:23:41;15.40;99.90
3921;DHT22;1975;49.356;6.816;2023-05-10T03:26:08;15.40;99.90
3921;DHT22;1975;49.356;6.816;2023-05-10T03:28:34;15.40;99.90
3921;DHT22;1975;49.356;6.816;2023-05-10T03:31:00;15.40;99.90
3921;DHT22;1975;49.356;6.816;2023-05-10T03:33:26;15.30;99.90
3921;DHT22;1975;49.356;6.816;2023-05-10T03:35:51;15.30;99.90
3921;DHT22;1975;49.356;6.816;2023-05-10T03:38:17;15.30;99.90
3921;DHT22;1975;49.356;6.816;2023-05-10T03:40:42;15.30;99.90
3921;DHT22;1975;49.356;6.816;2023-05-10T03:43:08;15.30;99.90
3921;DHT22;1975;49.356;6.816;2023-05-10T03:45:33;15.30;99.90
3921;DHT22;1975;49.356;6.816;2023-05-10T03:47:59;15.30;99.90
3921;DHT22;1975;49.356;6.816;2023-05-10T03:50:24;15.30;99.90
3921;DHT22;1975;49.356;6.816;2023-05-10T03:52:50;15.30;99.90
3921;DHT22;1975;49.356;6.816;2023-05-10T03:55:15;15.30;99.90
3921;DHT22;1975;49.356;6.816;2023-05-10T03:57:41;15.30;99.90
3921;DHT22;1975;49.356;6.816;2023-05-10T04:00:07;15.30;99.90
3921;DHT22;1975;49.356;6.816;2023-05-10T04:02:33;15.30;99.90
3921;DHT22;1975;49.356;6.816;2023-05-10T04:04:58;15.30;99.90
3921;DHT22;1975;49.356;6.816;2023-05-10T04:07:24;15.30;99.90
3921;DHT22;1975;49.356;6.816;2023-05-10T04:09:49;15.30;99.90
3921;DHT22;1975;49.356;6.816;2023-05-10T04:12:15;15.20;99.90
3921;DHT22;1975;49.356;6.816;2023-05-10T04:14:40;15.20;99.90
3921;DHT22;1975;49.356;6.816;2023-05-10T04:17:06;15.20;99.90
3921;DHT22;1975;49.356;6.816;2023-05-10T04:19:31;15.20;99.90
3921;DHT22;1975;49.356;6.816;2023-05-10T04:21:57;15.20;99.90
3921;DHT22;1975;49.356;6.816;2023-05-10T04:24:23;15.20;99.90
3921;DHT22;1975;49.356;6.816;2023-05-10T04:26:48;15.20;99.90
3921;DHT22;1975;49.356;6.816;2023-05-10T04:29:14;15.20;99.90
3921;DHT22;1975;49.356;6.816;2023-05-10T04:31:39;15.20;99.90
3921;DHT22;1975;49.356;6.816;2023-05-10T04:34:05;15.20;99.90
3921;DHT22;1975;49.356;6.816;2023-05-10T04:36:30;15.20;99.90
3921;DHT22;1975;49.356;6.816;2023-05-10T04:38:57;15.20;99.90
3921;DHT22;1975;49.356;6.816;2023-05-10T04:41:23;15.20;99.90
3921;DHT22;1975;49.356;6.816;2023-05-10T04:43:50;15.20;99.90
3921;DHT22;1975;49.356;6.816;2023-05-10T04:46:15;15.20;99.90
3921;DHT22;1975;49.356;6.816;2023-05-10T04:48:41;15.20;99.90
3921;DHT22;1975;49.356;6.816;2023-05-10T04:51:06;15.20;99.90
3921;DHT22;1975;49.356;6.816;2023-05-10T04:53:32;15.20;99.90
3921;DHT22;1975;49.356;6.816;2023-05-10T04:55:57;15.20;99.90
3921;DHT22;1975;49.356;6.816;2023-05-10T04:58:23;15.20;99.90
3921;DHT22;1975;49.356;6.816;2023-05-10T05:00:48;15.20;99.90
3921;DHT22;1975;49.356;6.816;2023-05-10T05:03:14;15.20;99.90
3921;DHT22;1975;49.356;6.816;2023-05-10T05:05:40;15.20;99.90
3921;DHT22;1975;49.356;6.816;2023-05-10T05:08:05;15.10;99.90
3921;DHT22;1975;49.356;6.816;2023-05-10T05:10:31;15.10;99.90
3921;DHT22;1975;49.356;6.816;2023-05-10T05:12:56;15.10;99.90
3921;DHT22;1975;49.356;6.816;2023-05-10T05:15:21;15.20;99.90
3921;DHT22;1975;49.356;6.816;2023-05-10T05:17:47;15.10;99.90
3921;DHT22;1975;49.356;6.816;2023-05-10T05:20:12;15.10;99.90
3921;DHT22;1975;49.356;6.816;2023-05-10T05:22:38;15.10;99.90
3921;DHT22;1975;49.356;6.816;2023-05-10T05:25:04;15.10;99.90
3921;DHT22;1975;49.356;6.816;2023-05-10T05:27:29;15.10;99.90
3921;DHT22;1975;49.356;6.816;2023-05-10T05:29:55;15.10;99.90
3921;DHT22;1975;49.356;6.816;2023-05-10T05:32:21;15.10;99.90
3921;DHT22;1975;49.356;6.816;2023-05-10T05:34:47;15.10;99.90
3921;DHT22;1975;49.356;6.816;2023-05-10T05:37:16;15.10;99.90
3921;DHT22;1975;49.356;6.816;2023-05-10T05:39:42;15.10;99.90
3921;DHT22;1975;49.356;6.816;2023-05-10T05:42:08;15.10;99.90
3921;DHT22;1975;49.356;6.816;2023-05-10T05:44:34;15.10;99.90
3921;DHT22;1975;49.356;6.816;2023-05-10T05:46:59;15.10;99.90
3921;DHT22;1975;49.356;6.816;2023-05-10T05:49:25;15.10;99.90
3921;DHT22;1975;49.356;6.816;2023-05-10T05:51:50;15.10;99.90
3921;DHT22;1975;49.356;6.816;2023-05-10T05:54:16;15.00;99.90
3921;DHT22;1975;49.356;6.816;2023-05-10T05:56:41;15.00;99.90
3921;DHT22;1975;49.356;6.816;2023-05-10T05:59:07;15.00;99.90
3921;DHT22;1975;49.356;6.816;2023-05-10T06:01:32;15.00;99.90
3921;DHT22;1975;49.356;6.816;2023-05-10T06:03:57;15.00;99.90
3921;DHT22;1975;49.356;6.816;2023-05-10T06:06:23;15.00;99.90
3921;DHT22;1975;49.356;6.816;2023-05-10T06:08:48;15.00;99.90
3921;DHT22;1975;49.356;6.816;2023-05-10T06:11:14;15.00;99.90
3921;DHT22;1975;49.356;6.816;2023-05-10T06:13:39;15.00;99.90
3921;DHT22;1975;49.356;6.816;2023-05-10T06:16:05;15.00;99.90
3921;DHT22;1975;49.356;6.816;2023-05-10T06:18:31;15.00;99.90
3921;DHT22;1975;49.356;6.816;2023-05-10T06:20:56;15.00;99.90
3921;DHT22;1975;49.356;6.816;2023-05-10T06:23:22;15.00;99.90
3921;DHT22;1975;49.356;6.816;2023-05-10T06:25:48;15.00;99.90
3921;DHT22;1975;49.356;6.816;2023-05-10T06:28:13;15.00;99.90
3921;DHT22;1975;49.356;6.816;2023-05-10T06:30:39;15.00;99.90
3921;DHT22;1975;49.356;6.816;2023-05-10T06:33:04;15.00;99.90
3921;DHT22;1975;49.356;6.816;2023-05-10T06:35:30;15.00;99.90
3921;DHT22;1975;49.356;6.816;2023-05-10T06:37:56;15.00;99.90
3921;DHT22;1975;49.356;6.816;2023-05-10T06:40:22;15.00;99.90
3921;DHT22;1975;49.356;6.816;2023-05-10T06:42:47;15.00;99.90
3921;DHT22;1975;49.356;6.816;2023-05-10T06:45:13;15.00;99.90
3921;DHT22;1975;49.356;6.816;2023-05-10T06:47:39;15.00;99.90
3921;DHT22;1975;49.356;6.816;2023-05-10T06:50:06;15.00;99.90
3921;DHT22;1975;49.356;6.816;2023-05-10T06:52:31;15.00;99.90
3921;DHT22;1975;49.356;6.816;2023-05-10T06:54:57;14.90;99.90
3921;DHT22;1975;49.356;6.816;2023-05-10T06:57:22;14.90;99.90
3921;DHT22;1975;49.356;6.816;2023-05-10T06:59:48;14.90;99.90
3921;DHT22;1975;49.356;6.816;2023-05-10T07:02:13;14.90;99.90
3921;DHT22;1975;49.356;6.816;2023-05-10T07:04:40;14.90;99.90
3921;DHT22;1975;49.356;6.816;2023-05-10T07:07:05;14.90;99.90
3921;DHT22;1975;49.356;6.816;2023-05-10T07:09:31;14.90;99.90
3921;DHT22;1975;49.356;6.816;2023-05-10T07:11:56;14.90;99.90
3921;DHT22;1975;49.356;6.816;2023-05-10T07:14:22;14.90;99.90
3921;DHT22;1975;49.356;6.816;2023-05-10T07:16:48;14.90;99.90
3921;DHT22;1975;49.356;6.816;2023-05-10T07:19:13;14.90;99.90
3921;DHT22;1975;49.356;6.816;2023-05-10T07:21:39;14.90;99.90
3921;DHT22;1975;49.356;6.816;2023-05-10T07:24:07;14.90;99.90
3921;DHT22;1975;49.356;6.816;2023-05-10T07:26:33;14.90;99.90
3921;DHT22;1975;49.356;6.816;2023-05-10T07:28:58;14.90;99.90
3921;DHT22;1975;49.356;6.816;2023-05-10T07:31:24;14.90;99.90
3921;DHT22;1975;49.356;6.816;2023-05-10T07:33:49;14.90;99.90
3921;DHT22;1975;49.356;6.816;2023-05-10T07:36:15;14.80;99.90
3921;DHT22;1975;49.356;6.816;2023-05-10T07:38:40;14.40;99.90
3921;DHT22;1975;49.356;6.816;2023-05-10T07:41:06;14.00;99.90
3921;DHT22;1975;49.356;6.816;2023-05-10T07:43:31;13.90;99.90
3921;DHT22;1975;49.356;6.816;2023-05-10T07:45:57;13.70;99.90
3921;DHT22;1975;49.356;6.816;2023-05-10T07:48:23;13.80;99.90
3921;DHT22;1975;49.356;6.816;2023-05-10T07:50:48;13.70;99.90
3921;DHT22;1975;49.356;6.816;2023-05-10T07:53:13;13.60;99.90
3921;DHT22;1975;49.356;6.816;2023-05-10T07:55:39;13.60;99.90
3921;DHT22;1975;49.356;6.816;2023-05-10T07:58:04;13.60;99.90
3921;DHT22;1975;49.356;6.816;2023-05-10T08:00:30;13.60;99.90
3921;DHT22;1975;49.356;6.816;2023-05-10T08:02:55;13.50;99.90
3921;DHT22;1975;49.356;6.816;2023-05-10T08:05:21;13.50;99.90
3921;DHT22;1975;49.356;6.816;2023-05-10T08:07:47;13.50;99.90
3921;DHT22;1975;49.356;6.816;2023-05-10T08:10:12;13.40;99.90
3921;DHT22;1975;49.356;6.816;2023-05-10T08:12:38;13.40;99.90
3921;DHT22;1975;49.356;6.816;2023-05-10T08:15:03;13.40;99.90
3921;DHT22;1975;49.356;6.816;2023-05-10T08:17:29;13.50;99.90
3921;DHT22;1975;49.356;6.816;2023-05-10T08:19:54;13.40;99.90
3921;DHT22;1975;49.356;6.816;2023-05-10T08:22:20;13.40;99.90
3921;DHT22;1975;49.356;6.816;2023-05-10T08:24:45;13.20;99.90
3921;DHT22;1975;49.356;6.816;2023-05-10T08:27:11;13.30;99.90
3921;DHT22;1975;49.356;6.816;2023-05-10T08:29:37;13.30;99.90
3921;DHT22;1975;49.356;6.816;2023-05-10T08:32:02;13.40;99.90
3921;DHT22;1975;49.356;6.816;2023-05-10T08:34:28;13.40;99.90
3921;DHT22;1975;49.356;6.816;2023-05-10T08:36:53;13.50;99.90
3921;DHT22;1975;49.356;6.816;2023-05-10T08:39:19;13.40;99.90
3921;DHT22;1975;49.356;6.816;2023-05-10T08:41:44;13.40;99.90
3921;DHT22;1975;49.356;6.816;2023-05-10T08:44:10;13.50;99.90
3921;DHT22;1975;49.356;6.816;2023-05-10T08:46:36;13.40;99.90
3921;DHT22;1975;49.356;6.816;2023-05-10T08:49:04;13.30;99.90
3921;DHT22;1975;49.356;6.816;2023-05-10T08:51:32;13.20;99.90
3921;DHT22;1975;49.356;6.816;2023-05-10T08:53:59;13.20;99.90
3921;DHT22;1975;49.356;6.816;2023-05-10T08:56:25;13.10;99.90
3921;DHT22;1975;49.356;6.816;2023-05-10T08:58:51;13.20;99.90
3921;DHT22;1975;49.356;6.816;2023-05-10T09:01:16;13.20;99.90
3921;DHT22;1975;49.356;6.816;2023-05-10T09:03:43;13.20;99.90
3921;DHT22;1975;49.356;6.816;2023-05-10T09:06:08;13.20;99.90
3921;DHT22;1975;49.356;6.816;2023-05-10T09:08:34;13.20;99.90
3921;DHT22;1975;49.356;6.816;2023-05-10T09:11:01;13.20;99.90
3921;DHT22;1975;49.356;6.816;2023-05-10T09:13:28;13.30;99.90
3921;DHT22;1975;49.356;6.816;2023-05-10T09:15:53;13.50;99.90
3921;DHT22;1975;49.356;6.816;2023-05-10T09:18:19;13.50;99.90
3921;DHT22;1975;49.356;6.816;2023-05-10T09:20:44;13.60;99.90
3921;DHT22;1975;49.356;6.816;2023-05-10T09:23:10;13.60;99.90
3921;DHT22;1975;49.356;6.816;2023-05-10T09:25:36;13.60;99.90
3921;DHT22;1975;49.356;6.816;2023-05-10T09:28:06;13.50;99.90
3921;DHT22;1975;49.356;6.816;2023-05-10T09:30:31;13.40;99.90
3921;DHT22;1975;49.356;6.816;2023-05-10T09:32:57;13.40;99.90
3921;DHT22;1975;49.356;6.816;2023-05-10T09:35:24;13.30;99.90
3921;DHT22;1975;49.356;6.816;2023-05-10T09:37:50;13.40;99.90
3921;DHT22;1975;49.356;6.816;2023-05-10T09:40:17;13.50;99.90
3921;DHT22;1975;49.356;6.816;2023-05-10T09:42:49;13.60;99.90
3921;DHT22;1975;49.356;6.816;2023-05-10T09:45:15;13.70;99.90
3921;DHT22;1975;49.356;6.816;2023-05-10T09:47:41;13.70;99.90
3921;DHT22;1975;49.356;6.816;2023-05-10T09:50:06;13.70;99.90
3921;DHT22;1975;49.356;6.816;2023-05-10T09:55:17;13.70;99.90
3921;DHT22;1975;49.356;6.816;2023-05-10T09:57:43;13.60;99.90
3921;DHT22;1975;49.356;6.816;2023-05-10T10:00:08;13.50;99.90
3921;DHT22;1975;49.356;6.816;2023-05-10T10:02:38;13.60;99.90
3921;DHT22;1975;49.356;6.816;2023-05-10T10:05:04;13.60;99.90
3921;DHT22;1975;49.356;6.816;2023-05-10T10:07:31;13.60;99.90
3921;DHT22;1975;49.356;6.816;2023-05-10T10:09:57;13.70;99.90
3921;DHT22;1975;49.356;6.816;2023-05-10T10:12:23;13.80;99.90
3921;DHT22;1975;49.356;6.816;2023-05-10T10:14:48;13.80;99.90
3921;DHT22;1975;49.356;6.816;2023-05-10T10:17:15;13.90;99.90
3921;DHT22;1975;49.356;6.816;2023-05-10T10:19:41;14.00;99.90
3921;DHT22;1975;49.356;6.816;2023-05-10T10:22:07;14.00;99.90
3921;DHT22;1975;49.356;6.816;2023-05-10T10:24:32;14.00;99.90
3921;DHT22;1975;49.356;6.816;2023-05-10T10:27:07;13.90;99.90
3921;DHT22;1975;49.356;6.816;2023-05-10T10:29:39;13.90;99.90
3921;DHT22;1975;49.356;6.816;2023-05-10T10:32:25;13.80;99.90
3921;DHT22;1975;49.356;6.816;2023-05-10T10:34:52;13.70;99.90
3921;DHT22;1975;49.356;6.816;2023-05-10T10:37:19;13.70;99.90
3921;DHT22;1975;49.356;6.816;2023-05-10T10:39:44;13.70;99.90
3921;DHT22;1975;49.356;6.816;2023-05-10T10:42:13;13.70;99.90
3921;DHT22;1975;49.356;6.816;2023-05-10T10:44:38;13.70;99.90
3921;DHT22;1975;49.356;6.816;2023-05-10T10:47:05;13.70;99.90
3921;DHT22;1975;49.356;6.816;2023-05-10T10:52:12;13.80;99.90
3921;DHT22;1975;49.356;6.816;2023-05-10T10:54:38;13.70;99.90
3921;DHT22;1975;49.356;6.816;2023-05-10T10:57:09;13.80;99.90
3921;DHT22;1975;49.356;6.816;2023-05-10T10:59:35;13.90;99.90
3921;DHT22;1975;49.356;6.816;2023-05-10T11:02:01;14.00;99.90
3921;DHT22;1975;49.356;6.816;2023-05-10T11:04:27;14.10;99.90
3921;DHT22;1975;49.356;6.816;2023-05-10T11:06:53;14.10;99.90
3921;DHT22;1975;49.356;6.816;2023-05-10T11:09:39;14.20;99.90
3921;DHT22;1975;49.356;6.816;2023-05-10T11:12:07;14.20;99.90
3921;DHT22;1975;49.356;6.816;2023-05-10T11:14:33;14.30;99.90
3921;DHT22;1975;49.356;6.816;2023-05-10T11:16:59;14.30;99.90
3921;DHT22;1975;49.356;6.816;2023-05-10T11:19:27;14.30;99.90
3921;DHT22;1975;49.356;6.816;2023-05-10T11:24:22;14.40;99.90
3921;DHT22;1975;49.356;6.816;2023-05-10T11:26:50;14.40;99.90
3921;DHT22;1975;49.356;6.816;2023-05-10T11:29:17;14.40;99.90
3921;DHT22;1975;49.356;6.816;2023-05-10T11:31:43;14.50;99.90
3921;DHT22;1975;49.356;6.816;2023-05-10T11:34:09;14.50;99.90
3921;DHT22;1975;49.356;6.816;2023-05-10T11:36:35;14.50;99.90
3921;DHT22;1975;49.356;6.816;2023-05-10T11:39:01;14.50;99.90
3921;DHT22;1975;49.356;6.816;2023-05-10T11:41:28;14.50;99.90
3921;DHT22;1975;49.356;6.816;2023-05-10T11:43:53;14.60;99.90
3921;DHT22;1975;49.356;6.816;2023-05-10T11:46:20;14.60;99.90
3921;DHT22;1975;49.356;6.816;2023-05-10T11:48:46;14.60;99.90
3921;DHT22;1975;49.356;6.816;2023-05-10T11:51:12;14.60;99.90
3921;DHT22;1975;49.356;6.816;2023-05-10T11:53:37;14.60;99.90
3921;DHT22;1975;49.356;6.816;2023-05-10T11:56:09;14.70;99.90
3921;DHT22;1975;49.356;6.816;2023-05-10T11:58:36;14.70;99.90
3921;DHT22;1975;49.356;6.816;2023-05-10T12:01:02;14.70;99.90
3921;DHT22;1975;49.356;6.816;2023-05-10T12:03:27;14.70;99.90
3921;DHT22;1975;49.356;6.816;2023-05-10T12:05:54;14.80;99.90
3921;DHT22;1975;49.356;6.816;2023-05-10T12:08:21;14.80;99.90
3921;DHT22;1975;49.356;6.816;2023-05-10T12:10:46;14.80;99.90
3921;DHT22;1975;49.356;6.816;2023-05-10T12:13:12;14.80;99.90
3921;DHT22;1975;49.356;6.816;2023-05-10T12:15:39;14.80;99.90
3921;DHT22;1975;49.356;6.816;2023-05-10T12:18:05;14.80;99.90
3921;DHT22;1975;49.356;6.816;2023-05-10T12:20:30;14.90;99.90
3921;DHT22;1975;49.356;6.816;2023-05-10T12:22:56;14.90;99.90
3921;DHT22;1975;49.356;6.816;2023-05-10T12:25:23;14.90;99.90
3921;DHT22;1975;49.356;6.816;2023-05-10T12:27:52;14.90;99.90
3921;DHT22;1975;49.356;6.816;2023-05-10T12:30:21;15.00;99.90
3921;DHT22;1975;49.356;6.816;2023-05-10T12:32:47;15.00;99.90
3921;DHT22;1975;49.356;6.816;2023-05-10T12:35:13;15.00;99.90
3921;DHT22;1975;49.356;6.816;2023-05-10T12:37:38;15.00;99.90
3921;DHT22;1975;49.356;6.816;2023-05-10T12:40:07;15.00;99.90
3921;DHT22;1975;49.356;6.816;2023-05-10T12:42:33;15.10;99.90
3921;DHT22;1975;49.356;6.816;2023-05-10T12:44:59;15.10;99.90
3921;DHT22;1975;49.356;6.816;2023-05-10T12:47:24;15.10;99.90
3921;DHT22;1975;49.356;6.816;2023-05-10T12:49:50;15.20;99.90
3921;DHT22;1975;49.356;6.816;2023-05-10T12:52:16;15.10;99.90
3921;DHT22;1975;49.356;6.816;2023-05-10T12:54:42;15.20;99.90
3921;DHT22;1975;49.356;6.816;2023-05-10T12:57:07;15.20;99.90
3921;DHT22;1975;49.356;6.816;2023-05-10T12:59:33;15.20;99.90
3921;DHT22;1975;49.356;6.816;2023-05-10T13:01:58;15.20;99.90
3921;DHT22;1975;49.356;6.816;2023-05-10T13:04:23;15.30;99.90
3921;DHT22;1975;49.356;6.816;2023-05-10T13:06:49;15.30;99.90
3921;DHT22;1975;49.356;6.816;2023-05-10T13:09:14;15.30;99.90
3921;DHT22;1975;49.356;6.816;2023-05-10T13:11:40;15.30;99.90
3921;DHT22;1975;49.356;6.816;2023-05-10T13:14:06;15.40;99.90
3921;DHT22;1975;49.356;6.816;2023-05-10T13:16:31;15.40;99.90
3921;DHT22;1975;49.356;6.816;2023-05-10T13:18:57;15.40;99.90
3921;DHT22;1975;49.356;6.816;2023-05-10T13:21:22;15.40;99.90
3921;DHT22;1975;49.356;6.816;2023-05-10T13:23:49;15.40;99.90
3921;DHT22;1975;49.356;6.816;2023-05-10T13:26:15;15.40;99.90
3921;DHT22;1975;49.356;6.816;2023-05-10T13:28:40;15.40;99.90
3921;DHT22;1975;49.356;6.816;2023-05-10T13:31:06;15.50;99.90
3921;DHT22;1975;49.356;6.816;2023-05-10T13:33:31;15.50;99.90
3921;DHT22;1975;49.356;6.816;2023-05-10T13:35:57;15.50;99.90
3921;DHT22;1975;49.356;6.816;2023-05-10T13:38:22;15.50;99.90
3921;DHT22;1975;49.356;6.816;2023-05-10T13:40:47;15.50;99.90
3921;DHT22;1975;49.356;6.816;2023-05-10T13:43:13;15.50;99.90
3921;DHT22;1975;49.356;6.816;2023-05-10T13:45:38;15.60;99.90
3921;DHT22;1975;49.356;6.816;2023-05-10T13:48:04;15.60;99.90
3921;DHT22;1975;49.356;6.816;2023-05-10T13:50:29;15.60;99.90
3921;DHT22;1975;49.356;6.816;2023-05-10T13:52:55;15.60;99.90
3921;DHT22;1975;49.356;6.816;2023-05-10T13:55:20;15.60;99.90
3921;DHT22;1975;49.356;6.816;2023-05-10T13:57:46;15.60;99.90
3921;DHT22;1975;49.356;6.816;2023-05-10T14:00:11;15.60;99.90
3921;DHT22;1975;49.356;6.816;2023-05-10T14:02:37;15.60;99.90
3921;DHT22;1975;49.356;6.816;2023-05-10T14:05:03;15.70;99.90
3921;DHT22;1975;49.356;6.816;2023-05-10T14:07:28;15.70;99.90
3921;DHT22;1975;49.356;6.816;2023-05-10T14:09:54;15.70;99.90
3921;DHT22;1975;49.356;6.816;2023-05-10T14:12:19;15.70;99.90
3921;DHT22;1975;49.356;6.816;2023-05-10T14:14:45;15.70;99.90
3921;DHT22;1975;49.356;6.816;2023-05-10T14:17:10;15.70;99.90
3921;DHT22;1975;49.356;6.816;2023-05-10T14:19:36;15.80;99.90
3921;DHT22;1975;49.356;6.816;2023-05-10T14:22:01;15.80;99.90
3921;DHT22;1975;49.356;6.816;2023-05-10T14:24:27;15.80;99.90
3921;DHT22;1975;49.356;6.816;2023-05-10T14:26:52;15.80;99.90
3921;DHT22;1975;49.356;6.816;2023-05-10T14:29:21;15.80;99.90
3921;DHT22;1975;49.356;6.816;2023-05-10T14:31:47;15.80;99.90
3921;DHT22;1975;49.356;6.816;2023-05-10T14:34:12;15.80;99.90
3921;DHT22;1975;49.356;6.816;2023-05-10T14:36:38;15.80;99.90
3921;DHT22;1975;49.356;6.816;2023-05-10T14:39:04;15.80;99.90
3921;DHT22;1975;49.356;6.816;2023-05-10T14:41:30;15.80;99.90
3921;DHT22;1975;49.356;6.816;2023-05-10T14:43:56;15.90;99.90
3921;DHT22;1975;49.356;6.816;2023-05-10T14:46:21;15.90;99.90
3921;DHT22;1975;49.356;6.816;2023-05-10T14:48:47;15.80;99.90
3921;DHT22;1975;49.356;6.816;2023-05-10T14:51:12;15.90;99.90
3921;DHT22;1975;49.356;6.816;2023-05-10T14:53:38;15.80;99.90
3921;DHT22;1975;49.356;6.816;2023-05-10T14:56:03;15.80;99.90
3921;DHT22;1975;49.356;6.816;2023-05-10T14:58:29;15.80;99.90
3921;DHT22;1975;49.356;6.816;2023-05-10T15:00:55;15.80;99.90
3921;DHT22;1975;49.356;6.816;2023-05-10T15:03:21;15.80;99.90
3921;DHT22;1975;49.356;6.816;2023-05-10T15:05:47;15.80;99.90
3921;DHT22;1975;49.356;6.816;2023-05-10T15:08:12;15.80;99.90
3921;DHT22;1975;49.356;6.816;2023-05-10T15:10:38;15.80;99.90
3921;DHT22;1975;49.356;6.816;2023-05-10T15:13:04;15.90;99.90
3921;DHT22;1975;49.356;6.816;2023-05-10T15:15:29;15.90;99.90
3921;DHT22;1975;49.356;6.816;2023-05-10T15:17:55;15.90;99.90
3921;DHT22;1975;49.356;6.816;2023-05-10T15:20:20;15.90;99.90
3921;DHT22;1975;49.356;6.816;2023-05-10T15:22:46;15.90;99.90
3921;DHT22;1975;49.356;6.816;2023-05-10T15:25:12;15.90;99.90
3921;DHT22;1975;49.356;6.816;2023-05-10T15:27:38;15.90;99.90
3921;DHT22;1975;49.356;6.816;2023-05-10T15:30:03;15.90;99.90
3921;DHT22;1975;49.356;6.816;2023-05-10T15:32:29;16.00;99.90
3921;DHT22;1975;49.356;6.816;2023-05-10T15:34:54;16.00;99.90
3921;DHT22;1975;49.356;6.816;2023-05-10T15:37:20;16.00;99.90
3921;DHT22;1975;49.356;6.816;2023-05-10T15:39:46;16.00;99.90
3921;DHT22;1975;49.356;6.816;2023-05-10T15:42:12;16.10;99.90
3921;DHT22;1975;49.356;6.816;2023-05-10T15:44:37;16.10;99.90
3921;DHT22;1975;49.356;6.816;2023-05-10T15:47:04;16.10;99.90
3921;DHT22;1975;49.356;6.816;2023-05-10T15:49:30;16.10;99.90
3921;DHT22;1975;49.356;6.816;2023-05-10T15:51:55;16.20;99.90
3921;DHT22;1975;49.356;6.816;2023-05-10T15:54:21;16.20;99.90
3921;DHT22;1975;49.356;6.816;2023-05-10T15:56:46;16.20;99.90
3921;DHT22;1975;49.356;6.816;2023-05-10T15:59:12;16.20;99.90
3921;DHT22;1975;49.356;6.816;2023-05-10T16:01:37;16.30;99.90
3921;DHT22;1975;49.356;6.816;2023-05-10T16:04:03;16.30;99.90
3921;DHT22;1975;49.356;6.816;2023-05-10T16:06:28;16.30;99.90
3921;DHT22;1975;49.356;6.816;2023-05-10T16:08:55;16.30;99.90
3921;DHT22;1975;49.356;6.816;2023-05-10T16:11:21;16.30;99.90
3921;DHT22;1975;49.356;6.816;2023-05-10T16:13:46;16.30;99.90
3921;DHT22;1975;49.356;6.816;2023-05-10T16:16:12;16.40;99.90